Startpagina
METAR-TAF:

METAR-TAF

Vliegvelden :

Amman, Jordanië

breedte: 31-59N, lengte: 035-59E, hoogte: 767 m

Actueel weer

Dit bericht is 1 uur en het 10 minuten geleden gemaakt, om 18:00 UTC
Weinig wind
Temperatuur 19°C
Vochtigheid 40%
Druk 1021 hPa
Zicht: 6000 m

METAR: OJAM 251800Z 00000KT 6000 NSC 19/05 Q1021 NOSIG

Tijdstip: 22:10 (19:10 UTC)

Verwachting

Dit bericht is 2 uur en het 10 minuten geleden gemaakt, om 17:00 UTC
Verwachting geldig van 25 om 18 UTC tot 26 om 24 UTC
Wind 8 kt uit het noordwesten
Zicht: 5000 m
Heiigheid
Tijdelijke
van 25 om 18 UTC tot 26 om 06 UTC
Wind 2 kt uit variabele richting
Tijdelijke
van 26 om 06 UTC tot 26 om 16 UTC
Wind 12 kt uit het oosten
Zicht: 5000 m
Heiigheid

TAF: OJAM 251700Z 2518/2624 31008KT 5000 HZ NSC TEMPO 2518/2606 VRB02KT TEMPO 2606/2616 10012KT 5000 HZ

Waarnemingen en weersverwachtingen van meer dan 4000 vliegvelden (METAR en TAF).

De beschikbare stations zijn de gele en rode punten op de kaart.

Ga met uw muis naar het station om de naam te zien.

Klik dan om waarnemingen en weersverwachtingen te zien.

kaart wijzigen: klik op de groene knoppen met een zwart kruis om in te zoomen, op de groene knop met een streepje om uit te zoomen of op de groene pijlen voor aangrenzende kaarten.


METAR-TAF: